createdAt,value
2022-10-09T00:00:13.421Z,3.08
2022-10-09T00:01:33.662Z,3.38
2022-10-09T00:02:48.160Z,4.03
2022-10-09T00:04:03.042Z,3.35
2022-10-09T00:05:28.445Z,2.85
2022-10-09T00:06:44.422Z,2.78
2022-10-09T00:07:48.106Z,2.40
2022-10-09T00:08:57.622Z,3.15
2022-10-09T00:10:11.754Z,2.92
2022-10-09T00:11:39.127Z,2.00
2022-10-09T00:12:59.799Z,2.75
2022-10-09T00:14:38.310Z,3.15
2022-10-09T00:15:46.362Z,2.63
2022-10-09T00:16:50.608Z,2.60
2022-10-09T00:18:00.999Z,2.58
2022-10-09T00:19:11.536Z,2.25
2022-10-09T00:20:25.135Z,2.67
2022-10-09T00:21:36.415Z,2.40
2022-10-09T00:22:41.417Z,3.60
2022-10-09T00:23:56.726Z,2.80
2022-10-09T00:25:00.801Z,3.00
2022-10-09T00:26:07.484Z,3.25
2022-10-09T00:27:14.876Z,2.90
2022-10-09T00:28:34.302Z,2.35
2022-10-09T00:29:51.044Z,2.90
2022-10-09T00:30:56.222Z,2.55
2022-10-09T00:32:07.137Z,3.17
2022-10-09T00:33:11.953Z,2.63
2022-10-09T00:34:16.625Z,3.13
2022-10-09T00:35:22.537Z,4.10
2022-10-09T00:36:27.725Z,2.88
2022-10-09T00:37:47.104Z,2.00
2022-10-09T00:38:52.150Z,2.95
2022-10-09T00:40:03.353Z,2.75
2022-10-09T00:41:16.509Z,3.00
2022-10-09T00:42:22.120Z,2.97
2022-10-09T00:43:52.865Z,3.10
2022-10-09T00:45:00.561Z,2.10
2022-10-09T00:46:05.354Z,2.67
2022-10-09T00:47:26.944Z,2.28
2022-10-09T00:48:30.615Z,2.30
2022-10-09T00:49:36.310Z,1.70
2022-10-09T00:50:58.402Z,1.52
2022-10-09T00:52:07.706Z,1.50
2022-10-09T00:53:19.323Z,1.92
2022-10-09T00:54:29.435Z,1.48
2022-10-09T00:55:37.122Z,1.73
2022-10-09T00:56:43.796Z,1.50
2022-10-09T00:57:51.884Z,1.67
2022-10-09T00:58:59.162Z,1.30
2022-10-09T01:00:15.582Z,1.33
2022-10-09T01:01:28.682Z,1.88
2022-10-09T01:02:39.501Z,1.17
2022-10-09T01:03:47.170Z,1.65
2022-10-09T01:05:14.377Z,1.73
2022-10-09T01:06:33.639Z,1.60
2022-10-09T01:08:05.108Z,1.88
2022-10-09T01:09:37.647Z,1.92
2022-10-09T01:11:14.687Z,1.63
2022-10-09T01:12:42.455Z,1.70
2022-10-09T01:14:23.212Z,1.75
2022-10-09T01:15:32.905Z,1.33
2022-10-09T01:16:45.635Z,1.40
2022-10-09T01:18:09.507Z,1.35
2022-10-09T01:19:23.134Z,1.00
2022-10-09T01:20:49.874Z,1.38
2022-10-09T01:22:36.418Z,1.40
2022-10-09T01:24:14.151Z,0.95
2022-10-09T01:26:00.563Z,1.75
2022-10-09T01:27:23.695Z,1.67
2022-10-09T01:28:30.225Z,1.27
2022-10-09T01:29:42.758Z,1.65
2022-10-09T01:30:48.138Z,1.10
2022-10-09T01:31:52.702Z,1.30
2022-10-09T01:32:57.655Z,1.42
2022-10-09T01:34:04.034Z,1.45
2022-10-09T01:35:11.682Z,1.40
2022-10-09T01:36:18.593Z,1.38
2022-10-09T01:37:30.427Z,1.30
2022-10-09T01:38:35.649Z,1.27
2022-10-09T01:39:41.499Z,1.67
2022-10-09T01:40:45.694Z,1.20
2022-10-09T01:41:52.390Z,1.60
2022-10-09T01:42:56.812Z,2.03
2022-10-09T01:44:01.379Z,0.93
2022-10-09T01:45:06.062Z,1.30
2022-10-09T01:46:23.093Z,1.42
2022-10-09T01:47:27.673Z,1.02
2022-10-09T01:48:34.813Z,1.48
2022-10-09T01:49:51.920Z,1.02
2022-10-09T01:51:04.813Z,1.20
2022-10-09T01:52:33.428Z,1.02
2022-10-09T01:53:39.113Z,1.20
2022-10-09T01:55:26.569Z,1.02
2022-10-09T01:56:37.855Z,1.58
2022-10-09T01:58:12.261Z,0.98
2022-10-09T01:59:20.976Z,1.20
2022-10-09T04:51:12.869Z,1.27
2022-10-09T04:52:20.952Z,1.13
2022-10-09T04:53:25.127Z,1.60
2022-10-09T04:54:29.277Z,1.38
2022-10-09T04:55:32.899Z,1.40
2022-10-09T04:56:36.786Z,1.95
2022-10-09T04:57:41.908Z,1.40
2022-10-09T04:58:48.202Z,1.85
2022-10-09T04:59:51.836Z,1.55
2022-10-09T05:00:55.645Z,1.40
2022-10-09T05:01:59.495Z,1.40
2022-10-09T05:03:03.476Z,1.40
2022-10-09T05:04:07.250Z,1.58
2022-10-09T05:05:10.759Z,1.35
2022-10-09T05:06:16.591Z,1.58
2022-10-09T05:07:20.505Z,1.40
2022-10-09T05:08:24.283Z,1.30
2022-10-09T05:09:28.313Z,1.90
2022-10-09T05:10:35.070Z,1.98
2022-10-09T05:11:42.530Z,1.75
2022-10-09T05:12:51.140Z,1.48
2022-10-09T05:14:02.283Z,1.77
2022-10-09T05:15:06.826Z,1.58
2022-10-09T05:16:14.985Z,1.73
2022-10-09T05:17:22.996Z,1.40
2022-10-09T05:18:27.733Z,1.80
2022-10-09T05:19:32.811Z,1.50
2022-10-09T05:20:41.929Z,1.33
2022-10-09T05:21:45.811Z,1.60
2022-10-09T05:22:52.572Z,1.92
2022-10-09T05:23:59.209Z,1.30
2022-10-09T05:25:03.608Z,1.63
2022-10-09T05:26:13.959Z,2.25
2022-10-09T05:27:18.179Z,1.88
2022-10-09T05:28:23.378Z,1.40
2022-10-09T05:29:29.707Z,1.48
2022-10-09T05:30:33.464Z,2.03
2022-10-09T05:31:37.766Z,1.60
2022-10-09T05:32:41.473Z,1.30
2022-10-09T05:33:45.366Z,1.60
2022-10-09T05:34:49.254Z,2.13
2022-10-09T05:35:58.277Z,1.92
2022-10-09T05:37:02.385Z,1.65
2022-10-09T05:38:06.071Z,1.70
2022-10-09T05:39:09.966Z,2.00
2022-10-09T05:40:14.411Z,1.75
2022-10-09T05:41:20.146Z,2.15
2022-10-09T05:42:24.639Z,1.45
2022-10-09T05:43:33.364Z,1.75
2022-10-09T05:44:37.255Z,1.83
2022-10-09T05:45:41.868Z,1.40
2022-10-09T05:46:45.576Z,1.70
2022-10-09T05:47:49.464Z,2.00
2022-10-09T05:49:00.518Z,1.50
2022-10-09T05:50:05.225Z,1.58
2022-10-09T05:51:25.721Z,1.33
2022-10-09T05:52:30.490Z,1.60
2022-10-09T05:53:36.777Z,1.00
2022-10-09T05:54:42.962Z,1.38
2022-10-09T05:55:50.519Z,1.20
2022-10-09T05:56:55.851Z,1.40
2022-10-09T05:58:00.969Z,1.33
2022-10-09T05:59:19.860Z,1.33
2022-10-09T06:00:24.536Z,1.23
2022-10-09T06:01:37.835Z,1.90
2022-10-09T06:02:54.282Z,1.52
2022-10-09T06:04:01.741Z,1.42
2022-10-09T06:05:06.166Z,1.48
2022-10-09T06:06:12.446Z,2.00
2022-10-09T06:07:16.212Z,1.30
2022-10-09T06:08:24.504Z,1.30
2022-10-09T06:09:30.814Z,1.23
2022-10-09T06:10:36.816Z,1.30
2022-10-09T06:11:43.067Z,1.30
2022-10-09T06:12:47.055Z,1.50
2022-10-09T06:13:53.345Z,1.30
2022-10-09T06:15:00.003Z,1.38
2022-10-09T06:16:04.712Z,1.15
2022-10-09T06:17:11.480Z,1.00
2022-10-09T06:18:14.969Z,1.40
2022-10-09T06:19:22.215Z,1.88
2022-10-09T06:20:26.794Z,1.67
2022-10-09T06:21:31.097Z,1.75
2022-10-09T06:22:35.987Z,1.33
2022-10-09T06:23:46.785Z,1.65
2022-10-09T06:24:51.334Z,1.60
2022-10-09T06:25:59.143Z,1.80
2022-10-09T06:27:02.804Z,1.98
2022-10-09T06:28:06.993Z,1.73
2022-10-09T06:29:11.570Z,1.50
2022-10-09T06:30:16.234Z,1.85
2022-10-09T06:31:27.316Z,1.27
2022-10-09T06:32:32.597Z,1.75
2022-10-09T06:33:40.963Z,1.35
2022-10-09T06:34:48.648Z,1.10
2022-10-09T06:35:52.527Z,1.10
2022-10-09T06:36:56.925Z,1.33
2022-10-09T06:38:01.146Z,1.60
2022-10-09T06:39:09.549Z,1.58
2022-10-09T06:40:14.094Z,1.20
2022-10-09T06:41:26.862Z,1.33
2022-10-09T06:42:31.439Z,1.42
2022-10-09T06:43:35.383Z,1.25
2022-10-09T06:44:43.296Z,1.20
2022-10-09T06:45:48.207Z,0.98
2022-10-09T06:46:56.152Z,1.20
2022-10-09T06:48:00.212Z,1.20
2022-10-09T06:49:06.208Z,1.38
2022-10-09T06:50:10.972Z,0.90
2022-10-09T06:51:19.618Z,1.23
2022-10-09T06:52:24.086Z,1.00
2022-10-09T06:53:28.987Z,1.60
2022-10-09T06:54:32.516Z,1.13
2022-10-09T06:55:36.595Z,1.73
2022-10-09T06:56:40.812Z,1.67
2022-10-09T06:57:45.118Z,0.90
2022-10-09T06:58:49.420Z,1.27
2022-10-09T06:59:53.032Z,1.17
2022-10-09T07:01:27.051Z,1.20
2022-10-09T07:02:33.417Z,1.25
2022-10-09T07:03:41.539Z,1.30
2022-10-09T07:04:46.984Z,1.23
2022-10-09T07:05:50.555Z,1.10
2022-10-09T07:06:54.406Z,0.90
2022-10-09T07:07:57.904Z,1.02
2022-10-09T07:09:08.629Z,1.52
2022-10-09T07:10:12.422Z,1.10
2022-10-09T07:11:25.245Z,1.05
2022-10-09T07:12:29.124Z,1.20
2022-10-09T07:13:32.736Z,1.42
2022-10-09T07:14:36.963Z,1.52
2022-10-09T07:15:46.155Z,1.40
2022-10-09T07:16:52.397Z,1.25
2022-10-09T07:17:56.247Z,1.17
2022-10-09T07:19:01.530Z,1.00
2022-10-09T07:20:05.989Z,1.50
2022-10-09T07:21:10.479Z,1.00
2022-10-09T07:22:14.060Z,1.42
2022-10-09T07:23:18.035Z,1.35
2022-10-09T07:24:24.810Z,1.38
2022-10-09T07:25:29.179Z,1.63
2022-10-09T07:26:36.820Z,1.50
2022-10-09T07:27:41.394Z,1.67
2022-10-09T07:28:47.212Z,2.35
2022-10-09T07:29:50.884Z,1.60
2022-10-09T07:30:55.206Z,1.60
2022-10-09T07:31:58.888Z,1.77
2022-10-09T07:33:03.279Z,1.48
2022-10-09T07:34:08.055Z,1.58
2022-10-09T07:35:12.808Z,1.83
2022-10-09T07:36:19.857Z,1.83
2022-10-09T07:37:25.723Z,1.83
2022-10-09T07:38:36.093Z,1.23
2022-10-09T07:39:49.189Z,1.88
2022-10-09T07:41:09.224Z,1.70
2022-10-09T07:42:13.524Z,1.40
2022-10-09T07:43:17.795Z,1.55
2022-10-09T07:44:22.088Z,1.40
2022-10-09T07:45:26.145Z,1.30
2022-10-09T07:46:33.961Z,1.27
2022-10-09T07:47:41.551Z,1.00
2022-10-09T07:48:47.481Z,1.52
2022-10-09T07:49:55.730Z,1.80
2022-10-09T07:51:30.242Z,1.85
2022-10-09T07:52:34.587Z,1.52
2022-10-09T07:53:43.170Z,1.23
2022-10-09T07:54:48.705Z,1.55
2022-10-09T07:55:52.764Z,0.98
2022-10-09T07:56:57.481Z,1.20
2022-10-09T07:58:08.831Z,1.13
2022-10-09T07:59:17.697Z,1.35
2022-10-09T08:00:21.680Z,1.35
2022-10-09T08:01:29.207Z,1.60
2022-10-09T08:02:33.801Z,1.45
2022-10-09T08:03:41.499Z,1.88
2022-10-09T08:04:48.293Z,1.73
2022-10-09T08:05:59.344Z,1.77
2022-10-09T08:07:03.541Z,1.27
2022-10-09T08:08:08.708Z,2.30
2022-10-09T08:09:12.670Z,1.83
2022-10-09T08:10:17.680Z,1.40
2022-10-09T08:11:25.091Z,1.52
2022-10-09T08:12:28.814Z,1.65
2022-10-09T08:13:32.768Z,1.80
2022-10-09T08:14:37.362Z,1.80
2022-10-09T08:15:43.707Z,1.60
2022-10-09T08:16:49.751Z,1.55
2022-10-09T08:17:55.516Z,1.60
2022-10-09T08:19:02.203Z,1.70
2022-10-09T08:20:07.218Z,2.50
2022-10-09T08:21:16.940Z,1.48
2022-10-09T08:22:20.896Z,1.88
2022-10-09T08:23:24.654Z,2.90
2022-10-09T08:24:28.431Z,1.75
2022-10-09T08:25:40.556Z,1.70
2022-10-09T08:26:47.611Z,1.95
2022-10-09T08:27:55.683Z,1.88
2022-10-09T08:29:03.611Z,1.42
2022-10-09T08:30:10.703Z,1.88
2022-10-09T08:31:17.370Z,1.50
2022-10-09T08:32:21.799Z,1.90
2022-10-09T08:33:29.554Z,1.63
2022-10-09T08:34:35.471Z,1.17
2022-10-09T08:35:43.628Z,1.85
2022-10-09T08:36:47.607Z,1.30
2022-10-09T08:37:52.997Z,1.83
2022-10-09T08:38:56.872Z,1.95
2022-10-09T08:40:03.707Z,2.08
2022-10-09T08:41:38.968Z,1.67
2022-10-09T08:43:06.865Z,1.20
2022-10-09T08:44:17.128Z,1.75
2022-10-09T08:45:21.849Z,1.75
2022-10-09T08:46:46.837Z,1.63
2022-10-09T08:48:11.513Z,1.60
2022-10-09T08:49:29.656Z,1.58
2022-10-09T08:50:43.203Z,2.28
2022-10-09T08:51:48.485Z,1.50
2022-10-09T08:53:17.185Z,1.58
2022-10-09T08:54:36.206Z,1.73
2022-10-09T08:55:54.638Z,1.70
2022-10-09T08:57:03.686Z,1.30
2022-10-09T08:58:16.593Z,1.27
2022-10-09T08:59:20.405Z,1.50
2022-10-09T09:00:31.400Z,1.20
2022-10-09T09:02:20.225Z,1.60
2022-10-09T09:03:42.453Z,1.42
2022-10-09T09:05:38.011Z,1.40
2022-10-09T09:06:59.169Z,1.30
2022-10-09T09:09:00.811Z,1.60
2022-10-09T09:10:42.067Z,1.48
2022-10-09T09:12:06.259Z,2.00
2022-10-09T09:13:30.407Z,2.38
2022-10-09T09:14:56.351Z,1.70
2022-10-09T09:16:24.198Z,1.70
2022-10-09T09:18:07.717Z,1.33
2022-10-09T09:19:26.258Z,1.30
2022-10-09T09:20:58.564Z,1.60
2022-10-09T09:22:06.432Z,1.40
2022-10-09T09:23:18.652Z,1.27
2022-10-09T09:24:39.089Z,1.15
2022-10-09T09:25:58.689Z,1.10
2022-10-09T09:27:26.604Z,1.30
2022-10-09T09:28:35.028Z,1.52
2022-10-09T09:29:53.906Z,1.27
2022-10-09T09:31:16.422Z,1.67
2022-10-09T09:32:24.920Z,1.77
2022-10-09T09:34:05.250Z,1.80
2022-10-09T09:35:21.569Z,1.42
2022-10-09T09:36:48.717Z,2.00
2022-10-09T09:37:53.844Z,1.52
2022-10-09T09:40:37.567Z,1.38
2022-10-09T09:41:44.447Z,1.60
2022-10-09T09:42:48.597Z,1.60
2022-10-09T09:43:52.758Z,1.05
2022-10-09T09:45:07.879Z,1.52
2022-10-09T09:46:23.802Z,1.95
2022-10-09T09:47:41.947Z,1.88
2022-10-09T09:48:49.232Z,1.77
2022-10-09T09:50:02.826Z,1.15
2022-10-09T09:51:27.972Z,1.25
2022-10-09T09:52:47.477Z,1.10
2022-10-09T09:54:07.656Z,1.27
2022-10-09T09:55:33.959Z,1.40
2022-10-09T09:58:13.917Z,1.73
2022-10-09T09:59:34.588Z,1.35
2022-10-09T10:00:38.703Z,1.85
2022-10-09T10:02:06.248Z,1.35
2022-10-09T10:03:22.028Z,1.35
2022-10-09T10:04:33.328Z,1.48
2022-10-09T10:05:44.466Z,1.30
2022-10-09T10:06:48.264Z,1.42
2022-10-09T10:07:52.884Z,1.25
2022-10-09T10:09:05.017Z,1.17
2022-10-09T10:10:29.223Z,0.95
2022-10-09T10:11:36.429Z,1.15
2022-10-09T10:12:57.990Z,1.08
2022-10-09T10:14:09.550Z,1.13
2022-10-09T10:15:40.015Z,0.90
2022-10-09T10:16:52.963Z,0.88
2022-10-09T10:18:03.666Z,1.00
2022-10-09T10:19:37.841Z,0.88
2022-10-09T10:20:52.884Z,1.20
2022-10-09T10:22:02.552Z,1.08
2022-10-09T10:23:35.803Z,0.90
2022-10-09T10:24:46.652Z,0.98
2022-10-09T10:25:55.908Z,1.10
2022-10-09T10:27:29.580Z,1.17
2022-10-09T10:28:48.065Z,0.80
2022-10-09T10:30:10.585Z,0.80
2022-10-09T10:31:48.667Z,1.00
2022-10-09T10:33:25.158Z,1.13
2022-10-09T10:35:06.858Z,1.10
2022-10-09T10:36:11.357Z,1.30
2022-10-09T10:37:15.887Z,1.10
2022-10-09T10:38:36.109Z,1.00
2022-10-09T10:39:58.690Z,0.88
2022-10-09T10:41:24.386Z,0.90
2022-10-09T10:43:10.346Z,1.00
2022-10-09T10:44:27.578Z,1.20
2022-10-09T10:45:43.570Z,0.82
2022-10-09T10:47:06.965Z,0.90
2022-10-09T10:48:46.028Z,1.40
2022-10-09T10:49:52.610Z,1.02
2022-10-09T10:52:13.390Z,1.60
2022-10-09T10:53:46.970Z,1.50
2022-10-09T10:55:15.120Z,1.50
2022-10-09T10:56:36.696Z,0.95
2022-10-09T10:57:54.837Z,1.05
2022-10-09T10:59:27.688Z,0.90
2022-10-09T11:00:39.396Z,1.25
2022-10-09T11:01:58.798Z,1.10
2022-10-09T11:03:28.761Z,0.90
2022-10-09T11:05:23.083Z,1.10
2022-10-09T11:07:23.778Z,0.90
2022-10-09T11:08:58.116Z,1.60
2022-10-09T11:10:26.525Z,1.00
2022-10-09T11:11:46.112Z,0.93
2022-10-09T11:13:19.876Z,1.35
2022-10-09T11:14:41.762Z,0.80
2022-10-09T11:16:29.399Z,1.10
2022-10-09T11:17:49.961Z,1.00
2022-10-09T11:19:45.719Z,1.10
2022-10-09T11:21:03.080Z,1.10
2022-10-09T11:22:49.112Z,1.13
2022-10-09T11:24:33.093Z,1.00
2022-10-09T11:25:59.328Z,1.55
2022-10-09T11:27:40.588Z,1.48
2022-10-09T11:29:03.753Z,0.82
2022-10-09T11:30:15.936Z,0.82
2022-10-09T11:31:34.284Z,0.80
2022-10-09T11:33:14.516Z,1.23
2022-10-09T11:34:43.202Z,0.98
2022-10-09T11:36:03.892Z,1.27
2022-10-09T11:37:21.601Z,1.02
2022-10-09T11:38:47.595Z,1.10
2022-10-09T11:39:52.387Z,0.98
2022-10-09T11:40:59.111Z,1.20
2022-10-09T11:42:07.547Z,1.13
2022-10-09T11:43:33.071Z,1.17
2022-10-09T11:45:41.451Z,0.95
2022-10-09T11:47:11.140Z,0.93
2022-10-09T11:48:36.759Z,1.00
2022-10-09T11:50:54.993Z,1.10
2022-10-09T11:52:25.192Z,0.90
2022-10-09T11:53:34.620Z,1.52
2022-10-09T11:54:42.207Z,1.08
2022-10-09T11:55:49.685Z,1.20
2022-10-09T11:57:06.684Z,1.02
2022-10-09T11:58:25.458Z,1.08
2022-10-09T11:59:38.062Z,1.00
2022-10-09T12:00:45.309Z,1.00
2022-10-09T12:01:50.160Z,1.40
2022-10-09T12:03:08.140Z,1.05
2022-10-09T12:04:20.826Z,0.98
2022-10-09T12:05:52.826Z,0.80
2022-10-09T12:07:05.631Z,0.90
2022-10-09T12:08:27.809Z,1.00
2022-10-09T12:09:49.249Z,0.90
2022-10-09T12:11:27.161Z,0.82
2022-10-09T12:12:33.501Z,1.33
2022-10-09T12:13:41.943Z,1.08
2022-10-09T12:14:51.236Z,1.20
2022-10-09T12:16:00.186Z,0.90
2022-10-09T12:17:18.230Z,0.82
2022-10-09T12:18:28.073Z,0.70
2022-10-09T12:19:41.442Z,1.23
2022-10-09T12:20:50.235Z,0.90
2022-10-09T12:21:59.863Z,0.70
2022-10-09T12:23:26.364Z,0.80
2022-10-09T12:24:52.369Z,0.82
2022-10-09T12:25:57.950Z,0.70
2022-10-09T12:27:03.909Z,0.85
2022-10-09T12:28:24.344Z,0.90
2022-10-09T12:29:48.545Z,0.90
2022-10-09T12:30:53.907Z,0.70
2022-10-09T12:32:06.709Z,0.80
2022-10-09T12:33:35.055Z,0.82
2022-10-09T12:34:49.745Z,0.82
2022-10-09T12:36:29.091Z,1.25
2022-10-09T12:37:37.083Z,0.80
2022-10-09T12:38:41.180Z,0.85
2022-10-09T12:39:50.337Z,0.98
2022-10-09T12:41:02.532Z,0.90
2022-10-09T12:42:17.806Z,0.77
2022-10-09T12:43:25.832Z,1.10
2022-10-09T12:44:42.421Z,1.00
2022-10-09T12:45:49.623Z,1.30
2022-10-09T12:46:54.189Z,0.90
2022-10-09T12:48:08.587Z,0.95
2022-10-09T12:49:22.426Z,0.85
2022-10-09T12:50:36.149Z,0.98
2022-10-09T12:51:41.488Z,0.95
2022-10-09T12:53:13.364Z,1.63
2022-10-09T12:54:18.973Z,1.13
2022-10-09T12:55:36.723Z,0.95
2022-10-09T12:56:40.541Z,0.98
2022-10-09T12:57:45.005Z,0.82
2022-10-09T12:58:50.408Z,0.80
2022-10-09T12:59:54.696Z,1.25
2022-10-09T13:01:06.902Z,1.10
2022-10-09T13:02:16.490Z,1.02
2022-10-09T13:03:35.033Z,1.65
2022-10-09T13:04:38.873Z,1.05
2022-10-09T13:05:43.466Z,0.82
2022-10-09T13:06:53.347Z,0.90
2022-10-09T13:07:57.209Z,0.90
2022-10-09T13:09:07.634Z,1.15
2022-10-09T13:10:24.044Z,1.00
2022-10-09T13:11:40.765Z,0.90
2022-10-09T13:12:53.591Z,0.93
2022-10-09T13:13:57.792Z,0.95
2022-10-09T13:15:33.335Z,1.67
2022-10-09T13:16:47.727Z,0.90
2022-10-09T13:17:52.005Z,1.02
2022-10-09T13:19:04.683Z,2.47
2022-10-09T13:20:26.663Z,3.08
2022-10-09T13:21:38.476Z,2.10
2022-10-09T13:22:56.839Z,1.27
2022-10-09T13:24:12.861Z,1.33
2022-10-09T13:25:17.421Z,1.27
2022-10-09T13:26:29.440Z,1.00
2022-10-09T13:27:39.758Z,1.13
2022-10-09T13:28:44.001Z,1.08
2022-10-09T13:30:21.074Z,1.15
2022-10-09T13:31:26.522Z,0.88
2022-10-09T13:32:39.450Z,1.15
2022-10-09T13:33:47.960Z,0.90
2022-10-09T13:34:55.922Z,1.02
2022-10-09T13:35:59.959Z,0.85
2022-10-09T13:37:03.597Z,1.30
2022-10-09T13:38:08.064Z,1.25
2022-10-09T13:39:15.522Z,1.63
2022-10-09T13:40:22.205Z,1.20
2022-10-09T13:41:29.704Z,0.90
2022-10-09T13:42:40.114Z,1.20
2022-10-09T13:43:44.235Z,0.90
2022-10-09T13:44:48.515Z,0.82
2022-10-09T13:45:53.702Z,1.30
2022-10-09T13:47:06.588Z,0.80
2022-10-09T13:48:11.721Z,1.30
2022-10-09T13:49:25.809Z,0.90
2022-10-09T13:50:37.171Z,0.98
2022-10-09T13:52:14.684Z,1.08
2022-10-09T13:53:20.027Z,1.05
2022-10-09T13:54:28.212Z,1.20
2022-10-09T13:55:40.087Z,1.25
2022-10-09T13:56:47.202Z,1.55
2022-10-09T13:57:51.120Z,0.82
2022-10-09T13:58:57.663Z,1.00
2022-10-09T14:00:01.520Z,1.05
2022-10-09T14:01:05.516Z,0.73
2022-10-09T14:02:13.383Z,1.08
2022-10-09T14:03:52.834Z,0.75
2022-10-09T14:04:58.722Z,1.05
2022-10-09T14:06:08.100Z,1.20
2022-10-09T14:07:13.224Z,1.10
2022-10-09T14:08:17.952Z,1.10
2022-10-09T14:09:26.285Z,1.00
2022-10-09T14:10:37.272Z,1.00
2022-10-09T14:11:41.134Z,0.75
2022-10-09T14:12:46.797Z,0.90
2022-10-09T14:13:51.455Z,0.90
2022-10-09T14:14:59.481Z,1.15
2022-10-09T14:16:11.519Z,0.90
2022-10-09T14:17:15.748Z,1.20
2022-10-09T14:18:25.499Z,0.80
2022-10-09T14:19:30.055Z,1.00
2022-10-09T14:20:38.306Z,1.10
2022-10-09T14:21:41.926Z,1.10
2022-10-09T14:22:48.824Z,1.00
2022-10-09T14:24:14.043Z,1.00
2022-10-09T14:25:17.866Z,1.10
2022-10-09T14:26:29.615Z,1.08
2022-10-09T14:27:40.319Z,1.00
2022-10-09T14:28:48.883Z,1.10
2022-10-09T14:29:55.274Z,0.95
2022-10-09T14:31:08.326Z,0.88
2022-10-09T14:32:24.914Z,0.90
2022-10-09T14:33:36.000Z,0.95
2022-10-09T14:34:43.439Z,0.85
2022-10-09T14:35:58.571Z,1.00
2022-10-09T14:37:07.314Z,0.70
2022-10-09T14:38:21.031Z,0.88
2022-10-09T14:39:28.076Z,0.80
2022-10-09T14:40:32.300Z,1.00
2022-10-09T14:41:37.935Z,1.00
2022-10-09T14:42:42.395Z,0.80
2022-10-09T14:43:53.250Z,1.13
2022-10-09T14:44:59.867Z,0.80
2022-10-09T14:46:12.723Z,1.13
2022-10-09T14:47:16.780Z,1.02
2022-10-09T14:48:28.258Z,0.90
2022-10-09T14:49:32.055Z,0.98
2022-10-09T14:50:36.720Z,1.17
2022-10-09T14:51:44.779Z,0.90
2022-10-09T14:52:52.181Z,0.80
2022-10-09T14:54:01.061Z,1.00
2022-10-09T14:55:05.421Z,0.85
2022-10-09T14:56:17.375Z,0.85
2022-10-09T14:57:21.238Z,0.80
2022-10-09T14:58:25.295Z,1.05
2022-10-09T14:59:30.730Z,0.93
2022-10-09T15:00:37.276Z,0.95
2022-10-09T15:01:45.192Z,1.10
2022-10-09T15:02:49.097Z,0.70
2022-10-09T15:03:53.602Z,1.02
2022-10-09T15:04:57.467Z,0.98
2022-10-09T15:06:06.024Z,0.90
2022-10-09T15:07:10.295Z,1.13
2022-10-09T15:08:14.248Z,0.90
2022-10-09T15:09:19.832Z,0.90
2022-10-09T15:10:23.583Z,0.75
2022-10-09T15:11:30.064Z,0.93
2022-10-09T15:12:34.036Z,0.90
2022-10-09T15:13:39.105Z,1.13
2022-10-09T15:14:42.800Z,0.85
2022-10-09T15:15:58.244Z,0.80
2022-10-09T15:17:08.196Z,0.95
2022-10-09T15:18:12.729Z,1.52
2022-10-09T15:19:26.511Z,0.70
2022-10-09T15:20:30.123Z,0.95
2022-10-09T15:21:35.868Z,0.93
2022-10-09T15:22:47.156Z,1.05
2022-10-09T15:23:56.613Z,0.77
2022-10-09T15:25:13.061Z,0.88
2022-10-09T15:26:27.524Z,1.20
2022-10-09T15:27:32.668Z,1.00
2022-10-09T15:28:40.382Z,1.00
2022-10-09T15:29:46.774Z,1.13
2022-10-09T15:31:01.218Z,1.08
2022-10-09T15:32:09.432Z,1.30
2022-10-09T15:33:32.483Z,1.25
2022-10-09T15:34:41.836Z,1.00
2022-10-09T15:36:04.843Z,1.00
2022-10-09T15:37:09.049Z,1.13
2022-10-09T15:38:38.457Z,1.20
2022-10-09T15:40:38.151Z,1.00
2022-10-09T15:42:06.937Z,1.00
2022-10-09T15:43:17.523Z,1.00
2022-10-09T15:44:58.976Z,1.02
2022-10-09T15:46:04.982Z,1.10
2022-10-09T15:47:13.614Z,1.30
2022-10-09T15:48:29.478Z,0.90
2022-10-09T15:49:35.937Z,1.10
2022-10-09T15:50:40.605Z,1.30
2022-10-09T15:52:02.477Z,0.93
2022-10-09T15:53:15.062Z,0.95
2022-10-09T15:54:41.303Z,1.23
2022-10-09T15:56:11.761Z,0.90
2022-10-09T15:57:20.757Z,1.05
2022-10-09T15:58:35.027Z,1.33
2022-10-09T15:59:45.883Z,0.95
2022-10-09T16:00:50.580Z,1.05
2022-10-09T16:01:58.706Z,1.30
2022-10-09T16:03:37.042Z,1.00
2022-10-09T16:04:56.462Z,1.00
2022-10-09T16:06:08.456Z,1.48
2022-10-09T16:07:20.175Z,1.55
2022-10-09T16:08:24.010Z,0.90
2022-10-09T16:09:42.039Z,0.95
2022-10-09T16:10:55.497Z,1.10
2022-10-09T16:12:02.532Z,0.80
2022-10-09T16:13:09.404Z,1.05
2022-10-09T16:14:32.326Z,2.13
2022-10-09T16:15:47.522Z,1.48
2022-10-09T16:17:02.145Z,1.33
2022-10-09T16:19:13.248Z,0.98
2022-10-09T16:20:53.063Z,1.00
2022-10-09T16:23:39.193Z,1.55
2022-10-09T16:24:48.986Z,1.13
2022-10-09T16:26:05.417Z,1.38
2022-10-09T16:27:23.563Z,0.90
2022-10-09T16:28:29.417Z,0.90
2022-10-09T16:29:41.288Z,1.10
2022-10-09T16:30:49.303Z,1.23
2022-10-09T16:31:56.842Z,1.35
2022-10-09T16:33:11.630Z,0.98
2022-10-09T16:34:31.948Z,0.73
2022-10-09T16:35:54.019Z,1.23
2022-10-09T16:37:03.923Z,0.82
2022-10-09T16:38:23.327Z,0.80
2022-10-09T16:39:28.404Z,0.90
2022-10-09T16:41:00.789Z,0.65
2022-10-09T16:42:07.076Z,0.82
2022-10-09T16:43:12.053Z,1.27
2022-10-09T16:44:20.189Z,1.13
2022-10-09T16:45:28.813Z,1.20
2022-10-09T16:46:38.392Z,1.33
2022-10-09T16:47:44.724Z,0.70
2022-10-09T16:49:05.579Z,1.65
2022-10-09T16:50:14.357Z,1.17
2022-10-09T16:51:42.540Z,0.70
2022-10-09T16:52:46.873Z,1.52
2022-10-09T16:53:59.317Z,0.90
2022-10-09T16:55:08.177Z,0.82
2022-10-09T16:56:24.352Z,0.90
2022-10-09T16:57:30.246Z,0.95
2022-10-09T16:58:34.652Z,1.30
2022-10-09T16:59:38.695Z,0.73
2022-10-09T17:00:43.562Z,1.00
2022-10-09T17:01:49.590Z,0.80
2022-10-09T17:02:53.568Z,0.80
2022-10-09T17:04:08.258Z,0.85
2022-10-09T17:06:44.313Z,0.80
2022-10-09T17:07:48.922Z,1.90
2022-10-09T17:09:13.532Z,1.77
2022-10-09T17:10:35.637Z,2.28
2022-10-09T17:12:00.962Z,1.35
2022-10-09T17:13:08.045Z,1.20
2022-10-09T17:14:13.702Z,1.55
2022-10-09T17:15:19.601Z,1.25
2022-10-09T17:16:35.079Z,1.00
2022-10-09T17:17:40.355Z,1.33
2022-10-09T17:18:54.393Z,1.17
2022-10-09T17:20:02.029Z,1.20
2022-10-09T17:21:11.709Z,0.90
2022-10-09T17:22:16.026Z,1.20
2022-10-09T17:23:19.769Z,0.80
2022-10-09T17:24:23.657Z,1.13
2022-10-09T17:25:47.876Z,1.00
2022-10-09T17:26:54.712Z,0.93
2022-10-09T17:28:07.876Z,1.13
2022-10-09T17:29:20.052Z,0.80
2022-10-09T17:30:27.109Z,0.73
2022-10-09T17:31:40.866Z,0.90
2022-10-09T17:32:50.832Z,1.10
2022-10-09T17:34:10.494Z,1.23
2022-10-09T17:35:43.810Z,1.10
2022-10-09T17:36:56.811Z,0.88
2022-10-09T17:38:03.229Z,0.95
2022-10-09T17:39:25.146Z,1.20
2022-10-09T17:40:29.648Z,0.80
2022-10-09T17:41:35.963Z,0.80
2022-10-09T17:42:43.115Z,1.70
2022-10-09T17:48:13.013Z,0.90
2022-10-09T17:49:25.152Z,1.00
2022-10-09T17:50:32.571Z,0.93
2022-10-09T17:51:41.406Z,0.80
2022-10-09T17:52:49.352Z,1.08
2022-10-09T17:54:25.412Z,1.02
2022-10-09T17:55:33.570Z,1.00
2022-10-09T17:57:02.218Z,1.23
2022-10-09T17:58:15.113Z,0.95
2022-10-09T17:59:31.625Z,0.95
2022-10-09T18:01:00.230Z,0.90
2022-10-09T18:02:17.349Z,1.02
2022-10-09T18:03:24.258Z,1.35
2022-10-09T18:04:30.219Z,1.13
2022-10-09T18:05:49.765Z,1.20
2022-10-09T18:06:58.372Z,1.30
2022-10-09T18:08:07.162Z,1.65
2022-10-09T18:09:33.491Z,2.03
2022-10-09T18:10:48.958Z,1.50
2022-10-09T18:12:10.161Z,1.08
2022-10-09T18:13:22.760Z,1.52
2022-10-09T18:14:30.071Z,1.42
2022-10-09T18:15:52.775Z,2.00
2022-10-09T18:17:06.205Z,1.40
2022-10-09T18:18:14.744Z,1.42
2022-10-09T18:19:33.649Z,1.92
2022-10-09T18:20:43.291Z,1.60
2022-10-09T18:21:50.685Z,1.05
2022-10-09T18:22:54.409Z,1.40
2022-10-09T18:23:58.189Z,1.63
2022-10-09T18:25:04.345Z,1.02
2022-10-09T18:26:19.406Z,1.48
2022-10-09T18:27:24.752Z,2.13
2022-10-09T18:28:29.523Z,1.23
2022-10-09T18:29:41.315Z,0.75
2022-10-09T18:30:48.496Z,1.48
2022-10-09T18:32:05.579Z,1.10
2022-10-09T18:33:14.195Z,1.00
2022-10-09T18:34:19.090Z,1.20
2022-10-09T18:35:44.318Z,1.13
2022-10-09T18:36:55.999Z,1.52
2022-10-09T18:38:06.137Z,1.65
2022-10-09T18:39:17.050Z,1.45
2022-10-09T18:40:25.045Z,1.20
2022-10-09T18:41:43.333Z,1.10
2022-10-09T18:42:53.676Z,1.42
2022-10-09T18:44:05.572Z,1.83
2022-10-09T18:45:42.535Z,1.38
2022-10-09T18:47:25.246Z,1.58
2022-10-09T18:48:43.385Z,2.13
2022-10-09T18:50:25.889Z,1.52
2022-10-09T18:52:32.067Z,1.98
2022-10-09T18:54:20.858Z,2.25
2022-10-09T18:55:27.185Z,1.55
2022-10-09T18:56:38.865Z,1.98
2022-10-09T18:57:45.793Z,2.00
2022-10-09T18:58:53.323Z,1.58
2022-10-09T19:00:05.140Z,1.70
2022-10-09T19:01:20.109Z,1.65
2022-10-09T19:02:32.276Z,2.03
2022-10-09T19:03:46.023Z,1.73
2022-10-09T19:04:55.935Z,1.17
2022-10-09T19:06:09.011Z,1.25
2022-10-09T19:07:16.443Z,1.90
2022-10-09T19:08:20.401Z,1.85
2022-10-09T19:09:27.621Z,2.10
2022-10-09T19:10:35.569Z,1.75
2022-10-09T19:11:42.644Z,1.80